createdAt,value
2018-12-22T00:01:18.839Z,93933.51
2018-12-22T00:03:46.428Z,93936.20
2018-12-22T00:06:14.034Z,93932.63
2018-12-22T00:08:41.725Z,93943.35
2018-12-22T00:11:09.479Z,93952.19
2018-12-22T00:13:37.355Z,93949.69
2018-12-22T00:16:05.003Z,93942.77
2018-12-22T00:18:32.673Z,93949.18
2018-12-22T00:21:00.282Z,93951.09
2018-12-22T00:23:27.903Z,93956.20
2018-12-22T00:25:55.614Z,93962.92
2018-12-22T00:28:23.315Z,93970.61
2018-12-22T00:30:50.905Z,93963.56
2018-12-22T00:33:18.602Z,93973.33
2018-12-22T00:35:46.163Z,93964.70
2018-12-22T00:38:13.985Z,93952.38
2018-12-22T00:40:41.747Z,93968.53
2018-12-22T00:43:09.616Z,93970.13
2018-12-22T00:45:37.185Z,93968.67
2018-12-22T00:48:05.041Z,93955.27
2018-12-22T00:50:33.111Z,93961.67
2018-12-22T00:53:00.901Z,93953.67
2018-12-22T00:55:28.460Z,93962.19
2018-12-22T00:57:56.095Z,93966.45
2018-12-22T01:00:23.719Z,93962.62
2018-12-22T01:02:51.432Z,93967.91
2018-12-22T01:05:19.163Z,93953.04
2018-12-22T01:07:46.805Z,93966.45
2018-12-22T01:10:15.897Z,93970.59
2018-12-22T01:12:44.537Z,93963.23
2018-12-22T01:15:13.022Z,93969.16
2018-12-22T01:17:41.529Z,93974.60
2018-12-22T01:20:09.495Z,93971.58
2018-12-22T01:22:37.335Z,93983.89
2018-12-22T01:25:05.831Z,93981.48
2018-12-22T01:27:33.517Z,93976.36
2018-12-22T01:30:01.156Z,93973.79
2018-12-22T01:32:28.826Z,93956.20
2018-12-22T01:34:56.522Z,93965.63
2018-12-22T01:37:24.146Z,93966.58
2018-12-22T01:39:51.731Z,93973.31
2018-12-22T01:42:19.340Z,93969.65
2018-12-22T01:44:47.333Z,93979.72
2018-12-22T01:47:14.974Z,93969.25
2018-12-22T01:49:42.700Z,93971.38
2018-12-22T01:52:10.344Z,93969.50
2018-12-22T01:54:37.972Z,93967.58
2018-12-22T01:57:05.729Z,93963.03
2018-12-22T01:59:33.603Z,93971.86
2018-12-22T02:02:01.297Z,93962.92
2018-12-22T02:04:29.082Z,93953.95
2018-12-22T02:06:56.790Z,93965.64
2018-12-22T02:09:24.651Z,93963.10
2018-12-22T02:11:52.423Z,93965.51
2018-12-22T02:14:20.054Z,93966.59
2018-12-22T02:16:47.764Z,93966.28
2018-12-22T02:19:15.515Z,93967.25
2018-12-22T02:21:43.280Z,93969.83
2018-12-22T02:24:10.895Z,93965.49
2018-12-22T02:26:38.702Z,93966.44
2018-12-22T02:29:06.471Z,93967.08
2018-12-22T02:31:34.173Z,93975.07
2018-12-22T02:34:01.800Z,93977.97
2018-12-22T02:36:29.450Z,93972.20
2018-12-22T02:38:57.191Z,93963.73
2018-12-22T02:41:24.833Z,93969.81
2018-12-22T02:43:52.402Z,93976.36
2018-12-22T02:46:20.081Z,93980.05
2018-12-22T02:48:47.742Z,93975.72
2018-12-22T02:51:15.315Z,93970.45
2018-12-22T02:53:42.885Z,93966.77
2018-12-22T02:56:10.554Z,93972.99
2018-12-22T02:58:38.297Z,93980.50
2018-12-22T03:01:05.891Z,93983.41
2018-12-22T03:03:34.150Z,93981.00
2018-12-22T03:06:01.811Z,93978.44
2018-12-22T03:08:29.921Z,93984.20
2018-12-22T03:10:57.586Z,93984.03
2018-12-22T03:13:25.248Z,93987.31
2018-12-22T03:15:52.949Z,93993.89
2018-12-22T03:18:20.543Z,93981.78
2018-12-22T03:20:48.313Z,93989.42
2018-12-22T03:23:16.068Z,93993.26
2018-12-22T03:25:43.646Z,93986.22
2018-12-22T03:28:11.486Z,93977.13
2018-12-22T03:30:39.262Z,93983.95
2018-12-22T03:33:07.037Z,93983.97
2018-12-22T03:35:34.643Z,93988.09
2018-12-22T03:38:02.281Z,93984.03
2018-12-22T03:40:29.990Z,93986.42
2018-12-22T03:42:57.628Z,93979.19
2018-12-22T03:45:25.211Z,93982.27
2018-12-22T03:47:53.295Z,93982.61
2018-12-22T03:50:20.894Z,93984.36
2018-12-22T03:52:48.648Z,93982.76
2018-12-22T03:55:16.309Z,93978.75
2018-12-22T03:57:43.910Z,93985.32
2018-12-22T04:00:11.532Z,93982.45
2018-12-22T04:02:39.155Z,93979.56
2018-12-22T04:05:07.785Z,93977.01
2018-12-22T04:07:35.882Z,93958.80
2018-12-22T04:10:05.124Z,93962.61
2018-12-22T04:12:32.897Z,93961.95
2018-12-22T04:15:00.573Z,93969.65
2018-12-22T04:17:28.164Z,93967.73
2018-12-22T04:19:55.980Z,93953.02
2018-12-22T04:22:23.952Z,93950.47
2018-12-22T04:24:53.643Z,93940.73
2018-12-22T04:27:21.328Z,93937.83
2018-12-22T04:29:49.292Z,93945.34
2018-12-22T04:32:17.161Z,93952.06
2018-12-22T04:34:44.816Z,93940.41
2018-12-22T04:37:12.407Z,93950.16
2018-12-22T04:39:40.067Z,93930.95
2018-12-22T04:42:07.697Z,93946.16
2018-12-22T04:44:35.295Z,93943.13
2018-12-22T04:47:02.923Z,93941.20
2018-12-22T04:49:30.546Z,93946.63
2018-12-22T04:51:58.197Z,93941.34
2018-12-22T04:54:25.884Z,93933.86
2018-12-22T04:56:53.593Z,93934.70
2018-12-22T04:59:21.201Z,93944.47
2018-12-22T05:01:48.845Z,93918.77
2018-12-22T05:04:16.441Z,93948.03
2018-12-22T05:06:44.078Z,93947.23
2018-12-22T05:09:11.729Z,93949.81
2018-12-22T05:11:39.431Z,93951.81
2018-12-22T05:14:07.084Z,93960.62
2018-12-22T05:16:34.654Z,93943.41
2018-12-22T05:19:02.329Z,93956.90
2018-12-22T05:21:30.210Z,93959.79
2018-12-22T05:23:57.866Z,93952.59
2018-12-22T05:26:25.626Z,93949.73
2018-12-22T05:28:54.225Z,93948.14
2018-12-22T05:31:22.073Z,93937.10
2018-12-22T05:33:49.722Z,93949.42
2018-12-22T05:36:17.361Z,93933.83
2018-12-22T05:38:45.079Z,93927.73
2018-12-22T05:41:12.752Z,93933.02
2018-12-22T05:43:40.343Z,93930.62
2018-12-22T05:46:08.126Z,93929.82
2018-12-22T05:48:35.821Z,93912.06
2018-12-22T05:51:03.589Z,93912.88
2018-12-22T05:53:31.345Z,93924.69
2018-12-22T05:55:59.078Z,93929.32
2018-12-22T05:58:26.888Z,93914.30
2018-12-22T06:00:54.712Z,93931.75
2018-12-22T06:03:22.509Z,93931.58
2018-12-22T06:05:51.702Z,93924.41
2018-12-22T06:08:19.474Z,93913.11
2018-12-22T06:10:47.226Z,93927.13
2018-12-22T06:13:15.090Z,93913.04
2018-12-22T06:15:42.679Z,93916.08
2018-12-22T06:18:10.466Z,93919.75
2018-12-22T06:20:38.201Z,93917.98
2018-12-22T06:23:05.881Z,93921.52
2018-12-22T06:25:33.602Z,93922.95
2018-12-22T06:28:01.186Z,93922.16
2018-12-22T06:30:28.759Z,93919.75
2018-12-22T06:32:56.396Z,93907.92
2018-12-22T06:35:24.056Z,93927.74
2018-12-22T06:37:51.725Z,93919.45
2018-12-22T06:40:19.321Z,93921.80
2018-12-22T06:42:46.993Z,93926.61
2018-12-22T06:45:14.656Z,93933.83
2018-12-22T06:47:42.314Z,93939.89
2018-12-22T06:50:10.090Z,93938.61
2018-12-22T06:52:37.757Z,93939.72
2018-12-22T06:55:06.375Z,93942.70
2018-12-22T06:57:33.979Z,93946.38
2018-12-22T07:00:01.920Z,93934.11
2018-12-22T07:02:29.587Z,93946.91
2018-12-22T07:04:57.189Z,93947.48
2018-12-22T07:07:24.759Z,93951.03
2018-12-22T07:09:52.417Z,93939.39
2018-12-22T07:12:20.042Z,93961.09
2018-12-22T07:14:48.955Z,93958.02
2018-12-22T07:17:16.631Z,93966.97
2018-12-22T07:19:44.209Z,93958.70
2018-12-22T07:22:12.263Z,93963.77
2018-12-22T07:24:41.162Z,93964.41
2018-12-22T07:27:08.869Z,93965.64
2018-12-22T07:29:36.578Z,93951.36
2018-12-22T07:32:04.385Z,93956.46
2018-12-22T07:34:32.191Z,93955.34
2018-12-22T07:36:59.946Z,93960.82
2018-12-22T07:39:27.658Z,93961.75
2018-12-22T07:41:55.432Z,93962.23
2018-12-22T07:44:23.080Z,93960.66
2018-12-22T07:46:50.793Z,93957.92
2018-12-22T07:49:18.404Z,93978.39
2018-12-22T07:51:46.117Z,93979.52
2018-12-22T07:54:13.757Z,93970.71
2018-12-22T07:56:41.433Z,93968.78
2018-12-22T07:59:09.109Z,93981.94
2018-12-22T08:01:36.765Z,93974.84
2018-12-22T08:04:04.475Z,93991.11
2018-12-22T08:06:32.195Z,93976.35
2018-12-22T08:08:59.882Z,93980.67
2018-12-22T08:11:27.571Z,93973.45
2018-12-22T08:13:55.225Z,93970.84
2018-12-22T08:16:22.889Z,93970.45
2018-12-22T08:18:50.548Z,93971.23
2018-12-22T08:21:19.252Z,93973.36
2018-12-22T08:23:46.909Z,93980.05
2018-12-22T08:26:14.547Z,93975.09
2018-12-22T08:28:42.245Z,93973.36
2018-12-22T08:31:09.857Z,93978.33
2018-12-22T08:33:37.518Z,93980.08
2018-12-22T08:36:05.223Z,93985.80
2018-12-22T08:38:32.870Z,93993.58
2018-12-22T08:41:00.629Z,93994.67
2018-12-22T08:43:28.293Z,93991.80
2018-12-22T08:45:55.937Z,93993.41
2018-12-22T08:48:23.556Z,94009.63
2018-12-22T08:50:52.410Z,93993.05
2018-12-22T08:53:20.023Z,94006.75
2018-12-22T08:55:47.734Z,94003.84
2018-12-22T08:58:15.407Z,94013.84
2018-12-22T09:00:43.185Z,94011.66
2018-12-22T09:03:12.406Z,94012.68
2018-12-22T09:05:40.115Z,94005.13
2018-12-22T09:08:07.728Z,94015.19
2018-12-22T09:10:35.414Z,94021.97
2018-12-22T09:13:03.204Z,94031.84
2018-12-22T09:15:30.858Z,94012.34
2018-12-22T09:17:58.459Z,94011.65
2018-12-22T09:20:26.125Z,94003.80
2018-12-22T09:22:53.729Z,93993.54
2018-12-22T09:25:21.392Z,93992.91
2018-12-22T09:27:49.274Z,93975.41
2018-12-22T09:30:17.047Z,93985.66
2018-12-22T09:32:44.719Z,93988.41
2018-12-22T09:35:12.549Z,93976.55
2018-12-22T09:37:40.176Z,93969.96
2018-12-22T09:40:08.046Z,93969.63
2018-12-22T09:42:35.671Z,93957.89
2018-12-22T09:45:03.724Z,93971.25
2018-12-22T09:47:31.400Z,93968.52
2018-12-22T09:49:59.137Z,93976.34
2018-12-22T09:52:26.974Z,93987.72
2018-12-22T09:54:54.650Z,93986.52
2018-12-22T09:57:22.258Z,94031.39
2018-12-22T09:59:49.948Z,94049.38
2018-12-22T10:02:17.792Z,94020.59
2018-12-22T10:04:45.416Z,94037.95
2018-12-22T10:07:13.416Z,94041.63
2018-12-22T10:09:41.231Z,94027.04
2018-12-22T10:12:08.992Z,94018.19
2018-12-22T10:14:36.622Z,94014.97
2018-12-22T10:17:05.064Z,94020.48
2018-12-22T10:19:32.678Z,94002.30
2018-12-22T10:22:00.433Z,94026.55
2018-12-22T10:24:28.069Z,94014.83
2018-12-22T10:26:55.758Z,94008.63
2018-12-22T10:29:23.403Z,94002.45
2018-12-22T10:31:51.070Z,94010.19
2018-12-22T10:34:18.655Z,94019.92
2018-12-22T10:36:46.353Z,94032.23
2018-12-22T10:39:14.041Z,94015.09
2018-12-22T10:41:41.702Z,94011.34
2018-12-22T10:44:09.382Z,94001.44
2018-12-22T10:46:37.131Z,93987.48
2018-12-22T10:49:04.720Z,93997.20
2018-12-22T10:51:32.574Z,93989.42
2018-12-22T10:54:00.349Z,93977.30
2018-12-22T10:56:27.966Z,93989.39
2018-12-22T10:58:55.673Z,93982.48
2018-12-22T11:01:26.582Z,93975.75
2018-12-22T11:03:53.119Z,93976.41
2018-12-22T11:06:20.964Z,93981.25
2018-12-22T11:08:50.605Z,93983.10
2018-12-22T11:11:19.508Z,93989.22
2018-12-22T11:13:47.201Z,93961.70
2018-12-22T11:16:15.259Z,93965.34
2018-12-22T11:18:43.143Z,93956.20
2018-12-22T11:21:12.347Z,93967.81
2018-12-22T11:23:39.958Z,93932.56
2018-12-22T11:26:07.688Z,93964.42
2018-12-22T11:28:35.277Z,93964.52
2018-12-22T11:31:02.912Z,93948.95
2018-12-22T11:33:30.589Z,93949.17
2018-12-22T11:35:58.365Z,93941.64
2018-12-22T11:38:27.040Z,93949.93
2018-12-22T11:40:55.605Z,93967.81
2018-12-22T11:43:23.748Z,94003.58
2018-12-22T11:45:51.479Z,94018.92
2018-12-22T11:48:21.545Z,94020.88
2018-12-22T11:50:49.310Z,94021.80
2018-12-22T11:53:17.205Z,94026.64
2018-12-22T11:55:46.008Z,94053.72
2018-12-22T11:58:14.126Z,94004.17
2018-12-22T12:00:43.768Z,93986.13
2018-12-22T12:03:11.655Z,93992.73
2018-12-22T12:05:40.222Z,93997.67
2018-12-22T12:08:08.755Z,93967.88
2018-12-22T12:10:37.689Z,93994.02
2018-12-22T12:13:05.434Z,93985.58
2018-12-22T12:15:38.215Z,93998.47
2018-12-22T12:18:16.826Z,93996.27
2018-12-22T12:20:44.632Z,93983.70
2018-12-22T12:23:12.462Z,94003.39
2018-12-22T12:25:40.398Z,93996.94
2018-12-22T12:28:08.173Z,93978.48
2018-12-22T12:30:35.965Z,93997.61
2018-12-22T12:33:03.969Z,93967.16
2018-12-22T12:35:31.949Z,93982.63
2018-12-22T12:38:02.169Z,93974.27
2018-12-22T12:40:29.933Z,93949.20
2018-12-22T12:42:57.690Z,93971.15
2018-12-22T12:45:25.841Z,93984.03
2018-12-22T12:47:53.628Z,93971.83
2018-12-22T12:50:23.634Z,93978.39
2018-12-22T12:52:51.354Z,93997.28
2018-12-22T12:55:19.011Z,94001.53
2018-12-22T12:57:47.296Z,93972.61
2018-12-22T13:00:21.158Z,93992.16
2018-12-22T13:02:48.758Z,93994.94
2018-12-22T13:05:16.412Z,93988.70
2018-12-22T13:07:44.097Z,94007.53
2018-12-22T13:10:15.108Z,93996.43
2018-12-22T13:15:46.571Z,93974.88
2018-12-22T13:18:15.961Z,93993.36
2018-12-22T13:20:43.686Z,94007.69
2018-12-22T13:23:11.327Z,93999.14
2018-12-22T13:25:39.165Z,93978.38
2018-12-22T13:28:07.690Z,93991.45
2018-12-22T13:30:36.329Z,93993.62
2018-12-22T13:33:04.714Z,93988.01
2018-12-22T13:35:33.747Z,93997.84
2018-12-22T13:38:01.350Z,94013.09
2018-12-22T13:40:29.145Z,94025.37
2018-12-22T13:42:58.075Z,94024.63
2018-12-22T13:45:26.978Z,94027.43
2018-12-22T13:47:55.979Z,94033.42
2018-12-22T13:50:24.137Z,94025.22
2018-12-22T13:52:51.963Z,94039.03
2018-12-22T13:55:20.826Z,94037.16
2018-12-22T13:57:50.687Z,94040.94
2018-12-22T14:00:23.259Z,94051.47
2018-12-22T14:02:51.035Z,94027.50
2018-12-22T14:05:26.211Z,94059.44
2018-12-22T14:07:53.872Z,94039.70
2018-12-22T14:10:23.218Z,94063.23
2018-12-22T14:12:51.097Z,94045.97
2018-12-22T14:15:22.541Z,94061.45
2018-12-22T14:20:52.841Z,94062.77
2018-12-22T14:23:23.210Z,94063.77
2018-12-22T14:25:50.839Z,94065.80
2018-12-22T14:28:18.479Z,94065.40
2018-12-22T14:30:46.453Z,94069.23
2018-12-22T14:33:15.100Z,94071.84
2018-12-22T14:35:42.825Z,94057.67
2018-12-22T14:38:13.022Z,94058.23
2018-12-22T14:40:40.778Z,94054.70
2018-12-22T14:43:08.462Z,94066.08
2018-12-22T14:45:36.142Z,94080.03
2018-12-22T14:48:04.583Z,94081.03
2018-12-22T14:50:32.254Z,94078.09
2018-12-22T14:52:59.996Z,94106.39
2018-12-22T14:55:28.771Z,94099.86
2018-12-22T14:58:00.230Z,94115.05
2018-12-22T15:00:27.897Z,94103.03
2018-12-22T15:02:55.747Z,94100.81
2018-12-22T15:05:23.446Z,94112.66
2018-12-22T15:07:51.655Z,94121.48
2018-12-22T15:10:19.431Z,94102.44
2018-12-22T15:12:47.638Z,94106.97
2018-12-22T15:15:15.935Z,94093.00
2018-12-22T15:17:44.278Z,94101.31
2018-12-22T15:20:24.490Z,94101.34
2018-12-22T15:22:53.907Z,94090.32
2018-12-22T15:25:23.204Z,94089.16
2018-12-22T15:27:50.901Z,94065.59
2018-12-22T15:30:19.809Z,94080.71
2018-12-22T15:32:54.382Z,94074.88
2018-12-22T15:35:19.457Z,94071.03
2018-12-22T15:37:47.148Z,94069.42
2018-12-22T15:40:14.902Z,94041.37
2018-12-22T15:42:42.560Z,94050.59
2018-12-22T15:45:15.601Z,94065.70
2018-12-22T15:47:45.012Z,94083.00
2018-12-22T15:50:17.896Z,94101.49
2018-12-22T15:52:45.783Z,94111.01
2018-12-22T15:55:13.855Z,94143.66
2018-12-22T15:57:45.093Z,94149.00
2018-12-22T16:00:13.682Z,94140.80
2018-12-22T16:02:42.548Z,94120.12
2018-12-22T16:05:13.528Z,94135.03
2018-12-22T16:07:42.328Z,94150.13
2018-12-22T16:10:14.011Z,94146.94
2018-12-22T16:12:44.387Z,94151.02
2018-12-22T16:15:19.328Z,94158.06
2018-12-22T16:17:47.793Z,94156.00
2018-12-22T16:20:15.527Z,94138.81
2018-12-22T16:22:55.339Z,94149.20
2018-12-22T16:25:27.363Z,94161.58
2018-12-22T16:27:59.892Z,94170.13
2018-12-22T16:30:47.865Z,94172.80
2018-12-22T16:33:16.801Z,94179.95
2018-12-22T16:35:44.566Z,94200.22
2018-12-22T16:38:12.982Z,94215.47
2018-12-22T16:40:42.074Z,94232.28
2018-12-22T16:43:13.320Z,94247.74
2018-12-22T16:45:43.339Z,94255.52
2018-12-22T16:48:11.962Z,94268.44
2018-12-22T16:50:40.172Z,94271.42
2018-12-22T16:53:08.666Z,94291.34
2018-12-22T16:55:36.604Z,94302.62
2018-12-22T16:58:09.843Z,94307.44
2018-12-22T17:03:40.219Z,94336.34
2018-12-22T17:06:12.636Z,94344.80
2018-12-22T17:08:40.445Z,94348.59
2018-12-22T17:11:09.102Z,94382.07
2018-12-22T17:13:36.866Z,94376.92
2018-12-22T17:16:06.318Z,94374.77
2018-12-22T17:18:34.283Z,94357.62
2018-12-22T17:21:07.979Z,94367.72
2018-12-22T17:23:50.311Z,94366.95
2018-12-22T17:26:19.153Z,94341.83
2018-12-22T17:28:46.826Z,94364.50
2018-12-22T17:31:14.608Z,94344.14
2018-12-22T17:33:43.718Z,94350.55
2018-12-22T17:36:14.428Z,94347.44
2018-12-22T17:38:42.385Z,94350.33
2018-12-22T17:41:13.604Z,94341.53
2018-12-22T17:43:43.432Z,94338.95
2018-12-22T17:46:12.897Z,94338.65
2018-12-22T17:48:41.367Z,94341.53
2018-12-22T17:51:09.158Z,94332.39
2018-12-22T17:53:37.364Z,94333.61
2018-12-22T17:56:05.134Z,94339.94
2018-12-22T17:58:33.113Z,94321.55
2018-12-22T18:01:01.044Z,94327.05
2018-12-22T18:03:29.004Z,94332.05
2018-12-22T18:05:57.832Z,94324.09
2018-12-22T18:08:26.424Z,94323.17
2018-12-22T18:10:54.312Z,94332.81
2018-12-22T18:13:22.141Z,94341.41
2018-12-22T18:15:50.943Z,94354.25
2018-12-22T18:18:18.899Z,94365.51
2018-12-22T18:20:47.210Z,94376.13
2018-12-22T18:23:14.934Z,94378.12
2018-12-22T18:25:42.696Z,94391.23
2018-12-22T18:28:10.563Z,94394.50
2018-12-22T18:30:38.342Z,94404.00
2018-12-22T18:33:06.334Z,94415.04
2018-12-22T18:35:34.477Z,94413.44
2018-12-22T18:38:02.800Z,94414.02
2018-12-22T18:40:30.970Z,94421.63
2018-12-22T18:42:58.775Z,94423.72
2018-12-22T18:45:26.962Z,94420.93
2018-12-22T18:47:55.593Z,94428.00
2018-12-22T18:50:24.545Z,94424.39
2018-12-22T18:52:52.651Z,94425.84
2018-12-22T18:55:20.388Z,94434.05
2018-12-22T18:57:50.096Z,94427.38
2018-12-22T19:00:22.087Z,94438.66
2018-12-22T19:02:51.742Z,94428.59
2018-12-22T19:05:20.307Z,94442.23
2018-12-22T19:07:49.029Z,94433.16
2018-12-22T19:10:23.020Z,94419.69
2018-12-22T19:12:50.678Z,94416.30
2018-12-22T19:15:18.617Z,94434.12
2018-12-22T19:17:46.439Z,94434.77
2018-12-22T19:20:24.114Z,94437.37
2018-12-22T19:22:51.873Z,94449.56
2018-12-22T19:25:19.797Z,94460.80
2018-12-22T19:27:48.394Z,94456.03
2018-12-22T19:30:16.174Z,94478.68
2018-12-22T19:32:44.185Z,94478.27
2018-12-22T19:35:12.092Z,94474.73
2018-12-22T19:37:39.882Z,94474.05
2018-12-22T19:40:08.847Z,94475.49
2018-12-22T19:42:37.334Z,94463.45
2018-12-22T19:45:06.823Z,94470.83
2018-12-22T19:47:34.552Z,94460.56
2018-12-22T19:50:02.535Z,94462.81
2018-12-22T19:52:30.257Z,94463.14
2018-12-22T19:54:57.866Z,94463.14
2018-12-22T19:57:25.625Z,94466.03
2018-12-22T19:59:53.366Z,94456.12
2018-12-22T20:02:21.134Z,94441.71
2018-12-22T20:04:48.832Z,94446.56
2018-12-22T20:07:16.543Z,94458.56
2018-12-22T20:09:44.988Z,94465.13
2018-12-22T20:12:14.157Z,94467.90
2018-12-22T20:14:41.961Z,94457.15
2018-12-22T20:17:09.802Z,94453.63
2018-12-22T20:19:37.828Z,94460.69
2018-12-22T20:22:05.659Z,94452.99
2018-12-22T20:24:35.170Z,94465.51
2018-12-22T20:27:03.636Z,94477.05
2018-12-22T20:29:34.896Z,94468.23
2018-12-22T20:32:02.532Z,94486.67
2018-12-22T20:34:30.239Z,94485.39
2018-12-22T20:36:58.637Z,94486.35
2018-12-22T20:39:26.664Z,94489.72
2018-12-22T20:41:54.338Z,94500.14
2018-12-22T20:44:22.930Z,94494.38
2018-12-22T20:46:51.477Z,94495.66
2018-12-22T20:49:21.133Z,94514.91
2018-12-22T20:51:48.852Z,94506.24
2018-12-22T20:54:17.519Z,94501.75
2018-12-22T20:56:45.505Z,94506.59
2018-12-22T20:59:14.009Z,94496.97
2018-12-22T21:01:41.810Z,94508.68
2018-12-22T21:04:19.618Z,94513.48
2018-12-22T21:06:40.739Z,94530.33
2018-12-22T21:09:08.485Z,94528.40
2018-12-22T21:11:36.330Z,94541.73
2018-12-22T21:14:04.935Z,94563.21
2018-12-22T21:16:33.688Z,94577.62
2018-12-22T21:19:01.442Z,94550.05
2018-12-22T21:21:30.199Z,94527.44
2018-12-22T21:23:57.920Z,94529.98
2018-12-22T21:26:26.999Z,94529.02
2018-12-22T21:28:54.643Z,94545.22
2018-12-22T21:31:22.439Z,94546.50
2018-12-22T21:33:50.076Z,94559.45
2018-12-22T21:36:17.730Z,94569.41
2018-12-22T21:38:45.440Z,94573.09
2018-12-22T21:41:13.048Z,94568.63
2018-12-22T21:43:40.740Z,94583.23
2018-12-22T21:46:10.090Z,94590.77
2018-12-22T21:48:38.099Z,94568.63
2018-12-22T21:51:05.809Z,94570.88
2018-12-22T21:53:34.175Z,94562.38
2018-12-22T21:56:01.817Z,94582.27
2018-12-22T21:58:29.523Z,94592.83
2018-12-22T22:00:57.165Z,94582.27
2018-12-22T22:03:24.907Z,94583.23
2018-12-22T22:05:52.584Z,94581.63
2018-12-22T22:08:20.652Z,94562.05
2018-12-22T22:10:48.525Z,94552.11
2018-12-22T22:13:16.386Z,94558.53
2018-12-22T22:15:44.102Z,94556.28
2018-12-22T22:18:11.795Z,94550.98
2018-12-22T22:20:39.470Z,94546.98
2018-12-22T22:23:08.305Z,94551.79
2018-12-22T22:25:36.096Z,94553.52
2018-12-22T22:28:03.994Z,94540.56
2018-12-22T22:30:32.090Z,94543.13
2018-12-22T22:33:01.507Z,94543.77
2018-12-22T22:35:29.114Z,94541.05
2018-12-22T22:37:58.441Z,94549.23
2018-12-22T22:40:26.430Z,94544.73
2018-12-22T22:42:54.889Z,94553.07
2018-12-22T22:45:23.301Z,94538.64
2018-12-22T22:47:51.342Z,94534.79
2018-12-22T22:50:19.176Z,94537.84
2018-12-22T22:52:48.728Z,94533.47
2018-12-22T22:55:16.429Z,94538.92
2018-12-22T22:57:44.239Z,94544.53
2018-12-22T23:00:14.358Z,94536.63
2018-12-22T23:02:42.221Z,94533.47
2018-12-22T23:05:09.903Z,94549.19
2018-12-22T23:07:37.590Z,94540.16
2018-12-22T23:10:07.354Z,94521.23
2018-12-22T23:12:36.267Z,94518.53
2018-12-22T23:15:04.549Z,94511.80
2018-12-22T23:17:32.399Z,94519.67
2018-12-22T23:20:01.221Z,94516.50
2018-12-22T23:22:29.048Z,94511.05
2018-12-22T23:24:57.547Z,94523.24
2018-12-22T23:27:25.403Z,94523.08
2018-12-22T23:29:54.088Z,94523.72
2018-12-22T23:32:23.184Z,94515.89
2018-12-22T23:34:51.094Z,94520.70
2018-12-22T23:37:18.820Z,94528.41
2018-12-22T23:39:47.401Z,94535.14
2018-12-22T23:42:15.406Z,94531.93
2018-12-22T23:44:44.026Z,94521.83
2018-12-22T23:47:12.527Z,94512.37
2018-12-22T23:49:40.414Z,94541.36
2018-12-22T23:52:08.273Z,94539.92
2018-12-22T23:54:35.880Z,94529.50
2018-12-22T23:57:03.563Z,94526.45
2018-12-22T23:59:31.364Z,94529.81
